createdAt,value
2022-09-04T00:00:54.303Z,11.98
2022-09-04T00:06:00.936Z,11.95
2022-09-04T00:11:03.505Z,11.92
2022-09-04T00:16:22.656Z,11.90
2022-09-04T00:21:39.958Z,11.85
2022-09-04T00:26:50.357Z,11.83
2022-09-04T00:32:29.462Z,11.83
2022-09-04T00:37:59.279Z,11.84
2022-09-04T00:43:37.290Z,11.86
2022-09-04T00:49:01.107Z,11.89
2022-09-04T00:54:25.533Z,11.91
2022-09-04T00:59:52.827Z,11.93
2022-09-04T01:05:27.586Z,11.96
2022-09-04T01:10:41.036Z,11.98
2022-09-04T01:15:48.854Z,11.98
2022-09-04T01:21:06.651Z,11.99
2022-09-04T01:26:16.007Z,11.99
2022-09-04T01:31:57.448Z,11.98
2022-09-04T01:37:38.005Z,13.82
2022-09-04T01:42:47.104Z,17.40
2022-09-04T01:47:56.816Z,16.82
2022-09-04T01:53:02.350Z,15.13
2022-09-04T01:58:42.700Z,14.22
2022-09-04T02:03:57.894Z,13.58
2022-09-04T02:09:19.493Z,13.15
2022-09-04T02:14:38.136Z,12.78
2022-09-04T02:19:43.571Z,12.51
2022-09-04T02:25:13.793Z,12.34
2022-09-04T02:30:20.639Z,12.19
2022-09-04T02:35:48.166Z,12.06
2022-09-04T02:40:58.368Z,13.45
2022-09-04T02:46:43.332Z,16.69
2022-09-04T02:52:04.698Z,16.97
2022-09-04T02:57:20.086Z,15.16
2022-09-04T03:02:35.756Z,14.19
2022-09-04T03:07:45.361Z,13.64
2022-09-04T03:12:55.125Z,13.23
2022-09-04T03:18:34.890Z,12.94
2022-09-04T03:23:49.451Z,12.69
2022-09-04T03:28:54.880Z,12.50
2022-09-04T03:34:18.319Z,12.36
2022-09-04T03:39:39.381Z,12.24
2022-09-04T03:44:52.237Z,12.14
2022-09-04T03:50:04.123Z,13.50
2022-09-04T03:55:24.975Z,16.81
2022-09-04T04:00:39.462Z,16.70
2022-09-04T04:05:54.380Z,15.04
2022-09-04T04:11:20.081Z,14.15
2022-09-04T04:16:41.548Z,13.60
2022-09-04T04:21:57.408Z,13.18
2022-09-04T04:27:14.358Z,12.86
2022-09-04T04:32:17.147Z,12.63
2022-09-04T04:37:34.200Z,12.45
2022-09-04T04:42:48.892Z,12.31
2022-09-04T04:48:03.557Z,12.20
2022-09-04T04:53:19.642Z,12.11
2022-09-04T04:58:54.363Z,13.49
2022-09-04T05:04:25.531Z,16.99
2022-09-04T05:09:48.078Z,16.93
2022-09-04T05:15:09.251Z,15.30
2022-09-04T05:20:23.925Z,14.47
2022-09-04T05:25:52.914Z,13.98
2022-09-04T05:31:09.531Z,13.61
2022-09-04T05:36:19.469Z,13.32
2022-09-04T05:41:40.834Z,13.11
2022-09-04T05:47:11.253Z,12.97
2022-09-04T05:52:30.012Z,12.87
2022-09-04T05:57:48.496Z,12.84
2022-09-04T06:02:54.187Z,12.90
2022-09-04T06:08:36.093Z,12.98
2022-09-04T06:14:17.859Z,13.11
2022-09-04T06:19:20.501Z,14.98
2022-09-04T06:25:05.265Z,18.13
2022-09-04T06:30:16.929Z,17.32
2022-09-04T06:36:05.752Z,16.59
2022-09-04T06:41:32.822Z,16.35
2022-09-04T06:47:00.292Z,16.33
2022-09-04T06:52:29.704Z,16.42
2022-09-04T06:57:57.539Z,16.56
2022-09-04T07:03:15.147Z,16.73
2022-09-04T07:08:48.827Z,16.96
2022-09-04T07:13:54.391Z,17.18
2022-09-04T07:19:21.118Z,17.41
2022-09-04T07:24:29.700Z,17.70
2022-09-04T07:29:41.284Z,17.98
2022-09-04T07:35:08.073Z,18.25
2022-09-04T07:40:23.363Z,18.52
2022-09-04T07:45:35.094Z,18.78
2022-09-04T07:51:03.766Z,19.03
2022-09-04T07:56:21.721Z,19.27
2022-09-04T08:01:45.993Z,19.52
2022-09-04T08:07:01.987Z,19.72
2022-09-04T08:12:25.756Z,19.89
2022-09-04T08:17:51.975Z,20.10
2022-09-04T08:23:18.017Z,20.34
2022-09-04T08:28:35.186Z,20.54
2022-09-04T08:33:44.862Z,20.66
2022-09-04T08:38:58.017Z,20.86
2022-09-04T08:44:27.016Z,21.05
2022-09-04T08:49:45.268Z,21.25
2022-09-04T08:54:48.733Z,21.47
2022-09-04T09:00:15.721Z,21.71
2022-09-04T09:05:21.169Z,21.93
2022-09-04T09:10:43.161Z,22.17
2022-09-04T09:16:00.559Z,22.41
2022-09-04T09:21:42.518Z,22.52
2022-09-04T09:27:22.367Z,22.69
2022-09-04T09:32:37.202Z,22.83
2022-09-04T09:38:04.860Z,22.98
2022-09-04T09:43:46.728Z,23.16
2022-09-04T09:49:25.876Z,23.35
2022-09-04T09:54:50.621Z,23.36
2022-09-04T10:00:06.771Z,23.52
2022-09-04T10:05:28.204Z,23.78
2022-09-04T10:10:30.859Z,24.04
2022-09-04T10:16:12.295Z,24.27
2022-09-04T10:21:46.438Z,24.47
2022-09-04T10:27:22.986Z,24.59
2022-09-04T10:32:36.668Z,24.71
2022-09-04T10:38:01.375Z,24.87
2022-09-04T10:43:10.463Z,25.08
2022-09-04T10:48:51.999Z,25.17
2022-09-04T10:54:26.200Z,25.24
2022-09-04T11:00:07.723Z,25.21
2022-09-04T11:05:33.404Z,25.28
2022-09-04T11:11:00.980Z,25.41
2022-09-04T11:16:22.295Z,25.54
2022-09-04T11:21:39.661Z,25.48
2022-09-04T11:27:12.357Z,25.46
2022-09-04T11:32:52.081Z,25.36
2022-09-04T11:38:10.008Z,25.17
2022-09-04T11:43:37.423Z,25.17
2022-09-04T11:48:41.229Z,25.08
2022-09-04T11:53:43.864Z,25.02
2022-09-04T11:59:05.172Z,25.07
2022-09-04T12:04:15.046Z,25.11
2022-09-04T12:10:03.952Z,25.30
2022-09-04T12:15:12.523Z,25.62
2022-09-04T12:20:18.113Z,25.91
2022-09-04T12:25:20.839Z,26.09
2022-09-04T12:30:34.987Z,26.20
2022-09-04T12:36:05.996Z,26.28
2022-09-04T12:41:16.708Z,26.42
2022-09-04T12:46:37.776Z,26.51
2022-09-04T12:52:01.951Z,26.49
2022-09-04T12:57:33.946Z,26.76
2022-09-04T13:02:45.109Z,27.24
2022-09-04T13:08:11.737Z,27.73
2022-09-04T13:13:46.496Z,28.25
2022-09-04T13:19:28.706Z,28.46
2022-09-04T13:25:09.012Z,28.09
2022-09-04T13:30:22.012Z,28.46
2022-09-04T13:35:41.414Z,29.14
2022-09-04T13:41:12.289Z,29.05
2022-09-04T13:46:20.994Z,28.37
2022-09-04T13:51:34.985Z,27.85
2022-09-04T13:56:58.337Z,27.38
2022-09-04T14:02:07.334Z,26.63
2022-09-04T14:07:24.783Z,25.92
2022-09-04T14:13:03.137Z,25.42
2022-09-04T14:18:24.691Z,25.77
2022-09-04T14:23:27.438Z,26.62
2022-09-04T14:28:58.143Z,27.61
2022-09-04T14:34:16.117Z,28.76
2022-09-04T14:39:27.584Z,28.52
2022-09-04T14:44:45.527Z,28.80
2022-09-04T14:49:51.701Z,30.76
2022-09-04T14:54:58.155Z,33.55
2022-09-04T15:00:19.042Z,35.83
2022-09-04T15:05:29.155Z,37.71
2022-09-04T15:10:50.461Z,39.16
2022-09-04T15:15:59.904Z,40.14
2022-09-04T15:21:34.506Z,41.03
2022-09-04T15:26:55.816Z,40.02
2022-09-04T15:32:02.103Z,37.32
2022-09-04T15:37:22.379Z,34.81
2022-09-04T15:42:42.121Z,33.54
2022-09-04T15:47:53.892Z,34.75
2022-09-04T15:53:28.462Z,36.06
2022-09-04T15:58:40.688Z,36.97
2022-09-04T16:04:01.514Z,38.23
2022-09-04T16:09:30.440Z,38.93
2022-09-04T16:14:51.914Z,39.45
2022-09-04T16:20:13.215Z,39.51
2022-09-04T16:25:23.579Z,37.44
2022-09-04T16:30:42.346Z,34.59
2022-09-04T16:35:46.892Z,32.12
2022-09-04T16:40:49.700Z,30.25
2022-09-04T16:46:10.744Z,28.78
2022-09-04T16:51:40.941Z,27.41
2022-09-04T16:56:50.286Z,26.37
2022-09-04T17:02:19.613Z,25.48
2022-09-04T17:07:32.242Z,24.69
2022-09-04T17:12:40.977Z,24.06
2022-09-04T17:17:47.450Z,23.54
2022-09-04T17:29:04.759Z,23.09
2022-09-04T17:29:15.826Z,22.59
2022-09-04T17:40:41.503Z,22.16
2022-09-04T17:40:49.126Z,21.73
2022-09-04T17:46:06.890Z,21.29
2022-09-04T17:51:21.750Z,20.97
2022-09-04T17:57:11.861Z,20.65
2022-09-04T18:02:43.009Z,20.28
2022-09-04T18:08:07.782Z,19.96
2022-09-04T18:13:37.724Z,19.67
2022-09-04T18:18:58.914Z,19.39
2022-09-04T18:24:09.767Z,19.17
2022-09-04T18:30:28.841Z,18.96
2022-09-04T18:37:19.849Z,18.73
2022-09-04T18:42:21.861Z,18.49
2022-09-04T18:50:36.971Z,18.22
2022-09-04T18:51:51.243Z,18.02
2022-09-04T18:57:00.505Z,17.80
2022-09-04T19:02:23.113Z,17.61
2022-09-04T19:07:32.702Z,17.41
2022-09-04T19:12:50.962Z,17.19
2022-09-04T19:17:59.225Z,16.98
2022-09-04T19:23:15.507Z,16.80
2022-09-04T19:28:26.941Z,16.61
2022-09-04T19:33:49.616Z,16.42
2022-09-04T19:45:55.271Z,16.22
2022-09-04T19:46:13.767Z,16.00
2022-09-04T19:53:22.065Z,15.83
2022-09-04T19:56:12.173Z,15.68
2022-09-04T20:01:20.985Z,15.57
2022-09-04T20:06:31.821Z,15.44
2022-09-04T20:11:39.934Z,15.33
2022-09-04T20:16:54.273Z,15.23
2022-09-04T20:22:07.336Z,15.13
2022-09-04T20:27:24.393Z,15.02
2022-09-04T20:32:33.307Z,14.90
2022-09-04T20:37:39.007Z,14.78
2022-09-04T20:43:02.677Z,14.67
2022-09-04T20:52:50.936Z,14.51
2022-09-04T20:53:55.656Z,14.38
2022-09-04T21:03:10.309Z,14.26
2022-09-04T21:05:21.785Z,14.14
2022-09-04T21:10:47.017Z,14.06
2022-09-04T21:15:57.059Z,13.97
2022-09-04T21:21:24.550Z,13.88
2022-09-04T21:26:48.145Z,13.79
2022-09-04T21:32:06.044Z,13.72
2022-09-04T21:37:18.327Z,13.66
2022-09-04T21:42:49.006Z,13.59
2022-09-04T21:48:18.468Z,13.50
2022-09-04T21:53:48.062Z,13.44
2022-09-04T22:02:35.905Z,13.36
2022-09-04T22:05:01.329Z,13.27
2022-09-04T22:13:28.701Z,13.20
2022-09-04T22:15:56.901Z,13.13
2022-09-04T22:21:13.132Z,13.07
2022-09-04T22:26:43.395Z,13.01
2022-09-04T22:31:55.953Z,12.96
2022-09-04T22:37:11.854Z,12.92
2022-09-04T22:42:53.348Z,12.84
2022-09-04T22:48:08.520Z,12.72
2022-09-04T22:54:01.503Z,12.60
2022-09-04T22:59:28.954Z,12.51
2022-09-04T23:05:02.411Z,12.42
2022-09-04T23:13:52.747Z,12.36
2022-09-04T23:16:27.873Z,12.30
2022-09-04T23:26:49.990Z,12.26
2022-09-04T23:27:40.932Z,12.18
2022-09-04T23:33:26.923Z,12.06
2022-09-04T23:39:21.977Z,11.91
2022-09-04T23:45:06.487Z,11.84
2022-09-04T23:50:45.437Z,13.58
2022-09-04T23:56:15.085Z,17.09
